createdAt,value
2019-02-18T00:02:42.269Z,90.50
2019-02-18T00:05:24.054Z,90.60
2019-02-18T00:08:06.292Z,91.40
2019-02-18T00:10:48.407Z,93.20
2019-02-18T00:13:30.280Z,94.90
2019-02-18T00:16:12.627Z,97.80
2019-02-18T00:18:54.819Z,99.20
2019-02-18T00:21:36.260Z,99.90
2019-02-18T00:24:17.636Z,99.90
2019-02-18T00:26:59.069Z,99.90
2019-02-18T00:29:40.424Z,99.20
2019-02-18T00:32:21.773Z,99.40
2019-02-18T00:35:02.029Z,98.50
2019-02-18T00:37:44.224Z,98.00
2019-02-18T00:40:26.401Z,97.60
2019-02-18T00:43:08.045Z,98.80
2019-02-18T00:45:50.208Z,99.00
2019-02-18T00:48:31.810Z,99.90
2019-02-18T00:51:13.350Z,99.90
2019-02-18T00:53:55.685Z,99.90
2019-02-18T00:56:37.017Z,99.90
2019-02-18T00:59:17.144Z,99.90
2019-02-18T01:05:13.320Z,99.90
2019-02-18T01:07:54.992Z,99.90
2019-02-18T01:10:36.600Z,99.90
2019-02-18T01:13:17.944Z,99.90
2019-02-18T01:16:00.333Z,99.90
2019-02-18T01:18:41.945Z,99.90
2019-02-18T01:21:24.076Z,99.90
2019-02-18T01:24:05.779Z,99.90
2019-02-18T01:26:47.664Z,99.90
2019-02-18T01:29:29.656Z,99.90
2019-02-18T01:32:11.426Z,99.90
2019-02-18T01:34:52.960Z,99.90
2019-02-18T01:37:44.836Z,99.90
2019-02-18T01:40:18.218Z,99.90
2019-02-18T01:42:59.841Z,99.90
2019-02-18T01:45:41.333Z,99.90
2019-02-18T01:48:22.852Z,99.90
2019-02-18T01:51:05.125Z,99.90
2019-02-18T01:53:46.812Z,99.90
2019-02-18T01:56:28.318Z,99.90
2019-02-18T01:59:09.840Z,99.90
2019-02-18T02:01:51.369Z,99.90
2019-02-18T02:04:33.345Z,99.90
2019-02-18T02:07:15.360Z,99.90
2019-02-18T02:09:56.936Z,99.90
2019-02-18T02:12:38.563Z,99.90
2019-02-18T02:15:19.920Z,99.90
2019-02-18T02:17:49.867Z,99.90
2019-02-18T02:23:42.899Z,99.90
2019-02-18T02:26:25.014Z,99.90
2019-02-18T02:29:06.476Z,99.90
2019-02-18T02:31:48.224Z,99.90
2019-02-18T02:34:30.549Z,99.90
2019-02-18T02:37:11.982Z,99.90
2019-02-18T02:39:54.076Z,99.90
2019-02-18T02:42:35.522Z,99.90
2019-02-18T02:45:15.803Z,99.90
2019-02-18T02:48:05.027Z,99.90
2019-02-18T02:50:47.202Z,99.90
2019-02-18T02:53:29.504Z,99.90
2019-02-18T02:56:11.003Z,99.90
2019-02-18T02:58:53.361Z,99.90
2019-02-18T03:01:35.158Z,99.90
2019-02-18T03:04:16.603Z,99.90
2019-02-18T03:06:58.180Z,99.90
2019-02-18T03:09:39.629Z,99.90
2019-02-18T03:12:21.224Z,99.90
2019-02-18T03:15:03.286Z,99.90
2019-02-18T03:17:45.432Z,99.90
2019-02-18T03:20:26.921Z,99.90
2019-02-18T03:23:09.165Z,99.90
2019-02-18T03:25:51.029Z,99.90
2019-02-18T03:28:32.449Z,99.90
2019-02-18T03:31:13.779Z,99.90
2019-02-18T03:33:55.202Z,99.90
2019-02-18T03:36:36.773Z,99.90
2019-02-18T03:39:18.290Z,99.90
2019-02-18T03:42:01.445Z,99.90
2019-02-18T03:44:43.652Z,99.90
2019-02-18T03:47:25.116Z,99.90
2019-02-18T03:50:06.901Z,99.90
2019-02-18T03:52:49.212Z,99.90
2019-02-18T03:55:30.847Z,99.90
2019-02-18T03:58:12.560Z,99.90
2019-02-18T04:00:54.407Z,99.90
2019-02-18T04:03:36.135Z,99.90
2019-02-18T04:06:17.680Z,99.90
2019-02-18T04:08:59.529Z,99.30
2019-02-18T04:11:41.516Z,98.30
2019-02-18T04:14:22.979Z,97.90
2019-02-18T04:17:04.284Z,97.50
2019-02-18T04:19:46.633Z,97.30
2019-02-18T04:22:28.137Z,96.80
2019-02-18T04:25:10.381Z,96.40
2019-02-18T04:27:52.112Z,96.20
2019-02-18T04:30:34.045Z,96.30
2019-02-18T04:33:15.711Z,96.20
2019-02-18T04:35:57.329Z,96.30
2019-02-18T04:38:39.784Z,96.50
2019-02-18T04:41:21.853Z,96.50
2019-02-18T04:44:03.300Z,96.50
2019-02-18T04:46:45.184Z,96.20
2019-02-18T04:49:26.652Z,95.60
2019-02-18T04:52:08.311Z,95.40
2019-02-18T04:54:50.010Z,95.40
2019-02-18T04:57:31.696Z,95.40
2019-02-18T05:00:13.729Z,95.80
2019-02-18T05:02:55.179Z,95.40
2019-02-18T05:05:36.577Z,95.40
2019-02-18T05:08:18.828Z,95.40
2019-02-18T05:11:01.076Z,95.40
2019-02-18T05:13:41.324Z,95.50
2019-02-18T05:16:23.538Z,95.90
2019-02-18T05:19:04.923Z,95.80
2019-02-18T05:21:47.052Z,95.60
2019-02-18T05:24:28.756Z,95.80
2019-02-18T05:27:10.748Z,95.90
2019-02-18T05:29:52.181Z,96.60
2019-02-18T05:32:33.688Z,96.90
2019-02-18T05:35:15.305Z,97.10
2019-02-18T05:37:56.760Z,97.20
2019-02-18T05:40:39.132Z,97.30
2019-02-18T05:43:20.654Z,97.10
2019-02-18T05:46:02.144Z,96.80
2019-02-18T05:48:43.546Z,96.50
2019-02-18T05:54:24.927Z,95.80
2019-02-18T05:57:06.813Z,96.20
2019-02-18T05:59:48.244Z,96.10
2019-02-18T06:02:30.309Z,96.10
2019-02-18T06:05:11.814Z,96.40
2019-02-18T06:07:53.527Z,97.10
2019-02-18T06:10:34.968Z,97.60
2019-02-18T06:13:16.470Z,97.90
2019-02-18T06:15:58.163Z,98.40
2019-02-18T06:18:39.797Z,99.20
2019-02-18T06:21:22.240Z,99.20
2019-02-18T06:24:03.761Z,99.50
2019-02-18T06:26:45.613Z,99.90
2019-02-18T06:29:27.828Z,99.90
2019-02-18T06:32:09.280Z,99.90
2019-02-18T06:34:50.728Z,99.90
2019-02-18T06:37:32.445Z,99.90
2019-02-18T06:40:13.807Z,99.90
2019-02-18T06:42:55.785Z,99.90
2019-02-18T06:45:56.747Z,99.90
2019-02-18T06:48:44.100Z,99.90
2019-02-18T06:51:25.521Z,99.90
2019-02-18T06:54:07.612Z,99.90
2019-02-18T07:00:44.467Z,99.90
2019-02-18T07:03:51.387Z,99.90
2019-02-18T07:06:52.424Z,99.90
2019-02-18T07:09:53.669Z,99.90
2019-02-18T07:12:39.126Z,99.90
2019-02-18T07:15:20.740Z,99.90
2019-02-18T07:18:02.440Z,99.90
2019-02-18T07:20:51.355Z,99.90
2019-02-18T07:23:40.439Z,99.90
2019-02-18T07:26:21.957Z,99.90
2019-02-18T07:29:03.407Z,99.90
2019-02-18T07:31:44.907Z,99.90
2019-02-18T07:34:26.330Z,99.90
2019-02-18T07:37:07.857Z,99.90
2019-02-18T07:39:50.253Z,99.90
2019-02-18T07:42:31.924Z,99.90
2019-02-18T07:45:13.848Z,99.90
2019-02-18T07:47:55.729Z,99.90
2019-02-18T07:50:37.513Z,99.90
2019-02-18T07:53:19.588Z,99.90
2019-02-18T07:56:01.296Z,99.90
2019-02-18T07:58:43.094Z,99.90
2019-02-18T08:01:24.928Z,99.90
2019-02-18T08:04:06.331Z,99.90
2019-02-18T08:06:47.929Z,99.90
2019-02-18T08:09:29.349Z,99.90
2019-02-18T08:12:11.284Z,99.90
2019-02-18T08:14:52.682Z,99.90
2019-02-18T08:17:34.188Z,99.90
2019-02-18T08:20:16.453Z,99.90
2019-02-18T08:22:57.893Z,99.90
2019-02-18T08:25:39.564Z,99.90
2019-02-18T08:28:21.928Z,99.90
2019-02-18T08:31:03.428Z,99.90
2019-02-18T08:33:44.989Z,99.90
2019-02-18T08:36:27.299Z,99.90
2019-02-18T08:39:08.903Z,99.90
2019-02-18T08:41:51.146Z,99.90
2019-02-18T08:44:32.787Z,99.90
2019-02-18T08:47:14.183Z,99.20
2019-02-18T08:49:56.376Z,98.90
2019-02-18T08:52:38.264Z,98.00
2019-02-18T08:55:19.921Z,98.30
2019-02-18T08:58:01.424Z,99.10
2019-02-18T09:00:42.869Z,99.60
2019-02-18T09:03:27.980Z,96.90
2019-02-18T09:06:10.368Z,94.80
2019-02-18T09:08:52.595Z,97.00
2019-02-18T09:11:34.234Z,97.50
2019-02-18T09:14:04.207Z,98.50
2019-02-18T09:16:34.045Z,99.50
2019-02-18T09:19:04.003Z,99.20
2019-02-18T09:21:35.000Z,98.60
2019-02-18T09:24:12.617Z,99.20
2019-02-18T09:26:42.443Z,96.40
2019-02-18T09:29:12.374Z,97.00
2019-02-18T09:31:42.972Z,93.50
2019-02-18T09:34:13.090Z,93.40
2019-02-18T09:36:42.998Z,90.70
2019-02-18T09:39:18.103Z,86.90
2019-02-18T09:41:48.024Z,87.00
2019-02-18T09:44:18.032Z,85.30
2019-02-18T09:46:47.949Z,89.50
2019-02-18T09:49:17.820Z,85.90
2019-02-18T09:51:47.690Z,86.70
2019-02-18T09:54:17.745Z,86.90
2019-02-18T09:56:47.669Z,77.30
2019-02-18T09:59:17.531Z,68.30
2019-02-18T10:01:47.375Z,65.40
2019-02-18T10:04:17.337Z,64.90
2019-02-18T10:06:47.185Z,62.50
2019-02-18T10:09:17.056Z,60.00
2019-02-18T10:11:46.897Z,58.40
2019-02-18T10:14:17.104Z,57.90
2019-02-18T10:16:46.948Z,53.90
2019-02-18T10:19:16.823Z,52.70
2019-02-18T10:21:46.780Z,52.00
2019-02-18T10:24:16.633Z,51.10
2019-02-18T10:26:46.552Z,49.00
2019-02-18T10:29:16.422Z,48.70
2019-02-18T10:31:46.335Z,46.50
2019-02-18T10:34:16.211Z,45.80
2019-02-18T10:36:46.167Z,45.90
2019-02-18T10:39:16.480Z,45.70
2019-02-18T10:41:46.402Z,44.50
2019-02-18T10:44:16.277Z,44.40
2019-02-18T10:46:46.257Z,43.60
2019-02-18T10:49:19.794Z,44.50
2019-02-18T10:51:47.840Z,43.60
2019-02-18T10:54:17.842Z,43.80
2019-02-18T10:56:47.891Z,43.20
2019-02-18T10:59:17.800Z,43.20
2019-02-18T11:01:47.721Z,43.20
2019-02-18T11:04:17.576Z,42.70
2019-02-18T11:06:47.849Z,44.00
2019-02-18T11:09:17.737Z,43.40
2019-02-18T11:11:47.567Z,44.50
2019-02-18T11:14:17.428Z,44.90
2019-02-18T11:16:47.269Z,44.40
2019-02-18T11:19:17.781Z,44.70
2019-02-18T11:21:47.664Z,44.70
2019-02-18T11:24:17.713Z,45.60
2019-02-18T11:26:47.700Z,46.00
2019-02-18T11:29:17.564Z,45.40
2019-02-18T11:31:47.446Z,44.90
2019-02-18T11:34:17.311Z,44.30
2019-02-18T11:36:47.224Z,43.80
2019-02-18T11:39:17.127Z,44.00
2019-02-18T11:41:47.172Z,44.00
2019-02-18T11:44:17.089Z,44.20
2019-02-18T11:46:47.021Z,43.80
2019-02-18T11:49:16.931Z,44.20
2019-02-18T11:51:46.896Z,44.00
2019-02-18T11:54:17.185Z,43.20
2019-02-18T11:56:47.188Z,42.70
2019-02-18T11:59:24.077Z,42.70
2019-02-18T12:01:48.669Z,42.40
2019-02-18T12:04:18.510Z,40.90
2019-02-18T12:06:48.656Z,40.60
2019-02-18T12:09:18.511Z,40.10
2019-02-18T12:11:48.523Z,39.80
2019-02-18T12:14:18.371Z,39.70
2019-02-18T12:16:48.243Z,40.00
2019-02-18T12:19:18.084Z,39.90
2019-02-18T12:21:48.048Z,40.40
2019-02-18T12:24:18.164Z,40.80
2019-02-18T12:26:48.180Z,40.70
2019-02-18T12:29:26.343Z,41.50
2019-02-18T12:31:50.671Z,41.90
2019-02-18T12:34:20.599Z,43.20
2019-02-18T12:36:50.651Z,43.30
2019-02-18T12:39:22.634Z,43.80
2019-02-18T12:41:52.238Z,43.40
2019-02-18T12:44:22.109Z,44.10
2019-02-18T12:46:52.145Z,45.00
2019-02-18T12:49:22.156Z,45.30
2019-02-18T12:51:52.068Z,44.90
2019-02-18T12:54:41.456Z,45.40
2019-02-18T12:57:23.460Z,44.60
2019-02-18T13:00:06.046Z,45.40
2019-02-18T13:02:48.201Z,45.60
2019-02-18T13:05:30.487Z,45.70
2019-02-18T13:08:12.821Z,46.40
2019-02-18T13:10:54.387Z,46.50
2019-02-18T13:13:36.469Z,46.40
2019-02-18T13:16:18.669Z,46.00
2019-02-18T13:19:00.251Z,46.10
2019-02-18T13:21:42.603Z,46.10
2019-02-18T13:24:24.734Z,45.30
2019-02-18T13:27:07.037Z,44.90
2019-02-18T13:29:49.142Z,44.80
2019-02-18T13:32:30.676Z,44.40
2019-02-18T13:35:12.766Z,44.60
2019-02-18T13:37:55.097Z,44.70
2019-02-18T13:40:37.447Z,45.10
2019-02-18T13:43:19.514Z,45.60
2019-02-18T13:46:00.912Z,44.90
2019-02-18T13:48:42.668Z,45.90
2019-02-18T13:51:12.653Z,45.40
2019-02-18T13:54:01.719Z,45.60
2019-02-18T13:57:10.058Z,44.70
2019-02-18T13:59:48.712Z,44.40
2019-02-18T14:02:30.483Z,44.30
2019-02-18T14:05:12.766Z,43.90
2019-02-18T14:07:55.103Z,44.70
2019-02-18T14:10:36.486Z,43.90
2019-02-18T14:13:18.905Z,44.30
2019-02-18T14:16:00.926Z,42.80
2019-02-18T14:18:42.937Z,42.60
2019-02-18T14:21:24.432Z,42.40
2019-02-18T14:24:05.988Z,42.50
2019-02-18T14:26:46.200Z,42.20
2019-02-18T14:29:35.718Z,42.70
2019-02-18T14:32:38.852Z,42.40
2019-02-18T14:35:20.259Z,42.50
2019-02-18T14:38:05.967Z,42.80
2019-02-18T14:40:48.187Z,43.90
2019-02-18T14:43:30.587Z,43.10
2019-02-18T14:46:12.055Z,42.90
2019-02-18T14:48:54.361Z,43.80
2019-02-18T14:51:35.976Z,44.50
2019-02-18T14:54:17.393Z,45.00
2019-02-18T14:56:59.299Z,45.30
2019-02-18T14:59:41.125Z,45.40
2019-02-18T15:02:22.921Z,45.90
2019-02-18T15:05:05.240Z,46.20
2019-02-18T15:07:46.959Z,47.20
2019-02-18T15:10:28.487Z,47.70
2019-02-18T15:13:10.388Z,48.70
2019-02-18T15:15:52.206Z,50.30
2019-02-18T15:18:34.130Z,51.80
2019-02-18T15:21:14.715Z,52.40
2019-02-18T15:24:03.848Z,52.90
2019-02-18T15:26:45.361Z,53.60
2019-02-18T15:29:27.440Z,54.40
2019-02-18T15:32:09.349Z,55.20
2019-02-18T15:34:52.292Z,55.70
2019-02-18T15:37:34.116Z,55.90
2019-02-18T15:42:58.660Z,57.00
2019-02-18T15:45:40.296Z,57.20
2019-02-18T15:48:22.465Z,57.70
2019-02-18T15:51:04.105Z,58.10
2019-02-18T15:53:45.592Z,58.50
2019-02-18T15:59:27.545Z,59.00
2019-02-18T16:02:09.117Z,59.80
2019-02-18T16:04:50.570Z,60.80
2019-02-18T16:07:31.968Z,61.40
2019-02-18T16:10:01.954Z,62.10
2019-02-18T16:12:51.340Z,63.20
2019-02-18T16:15:41.265Z,63.90
2019-02-18T16:18:25.377Z,64.70
2019-02-18T16:21:07.349Z,65.60
2019-02-18T16:23:53.026Z,66.50
2019-02-18T16:26:34.878Z,67.00
2019-02-18T16:29:16.400Z,67.80
2019-02-18T16:31:58.311Z,69.10
2019-02-18T16:34:40.166Z,70.10
2019-02-18T16:37:22.695Z,70.90
2019-02-18T16:40:04.931Z,71.50
2019-02-18T16:42:46.557Z,72.90
2019-02-18T16:49:00.412Z,73.60
2019-02-18T16:51:41.961Z,74.80
2019-02-18T16:54:23.479Z,75.20
2019-02-18T16:57:05.219Z,76.00
2019-02-18T16:59:47.179Z,76.40
2019-02-18T17:02:28.872Z,78.40
2019-02-18T17:05:10.373Z,80.00
2019-02-18T17:07:52.081Z,82.00
2019-02-18T17:10:34.029Z,85.40
2019-02-18T17:13:15.487Z,87.00
2019-02-18T17:15:57.084Z,89.10
2019-02-18T17:18:37.395Z,89.60
2019-02-18T17:21:26.544Z,91.00
2019-02-18T17:24:08.757Z,91.50
2019-02-18T17:26:50.669Z,92.70
2019-02-18T17:29:32.820Z,93.20
2019-02-18T17:32:14.271Z,93.40
2019-02-18T17:34:56.008Z,94.10
2019-02-18T17:37:38.375Z,94.50
2019-02-18T17:40:19.778Z,95.00
2019-02-18T17:43:02.241Z,94.70
2019-02-18T17:45:44.108Z,95.00
2019-02-18T17:48:25.527Z,96.00
2019-02-18T17:51:07.770Z,95.90
2019-02-18T17:53:50.260Z,96.60
2019-02-18T17:59:15.299Z,98.10
2019-02-18T18:01:57.483Z,98.50
2019-02-18T18:04:39.296Z,99.50
2019-02-18T18:07:21.629Z,99.30
2019-02-18T18:10:03.680Z,99.90
2019-02-18T18:12:45.300Z,99.90
2019-02-18T18:15:27.258Z,99.90
2019-02-18T18:18:09.423Z,99.90
2019-02-18T18:20:51.624Z,99.90
2019-02-18T18:23:33.019Z,99.90
2019-02-18T18:26:14.673Z,99.90
2019-02-18T18:28:56.452Z,99.90
2019-02-18T18:31:38.003Z,99.90
2019-02-18T18:34:19.963Z,99.90
2019-02-18T18:37:01.704Z,99.90
2019-02-18T18:39:43.995Z,99.90
2019-02-18T18:42:26.249Z,99.90
2019-02-18T18:45:07.827Z,99.90
2019-02-18T18:47:50.020Z,99.90
2019-02-18T18:50:32.080Z,99.90
2019-02-18T18:53:13.696Z,99.90
2019-02-18T18:55:55.380Z,99.90
2019-02-18T18:58:37.507Z,99.90
2019-02-18T19:01:19.337Z,99.90
2019-02-18T19:04:01.480Z,99.90
2019-02-18T19:06:43.154Z,99.90
2019-02-18T19:09:24.573Z,99.90
2019-02-18T19:11:54.674Z,99.90
2019-02-18T19:14:24.797Z,99.90
2019-02-18T19:16:55.278Z,99.90
2019-02-18T19:19:26.448Z,99.90
2019-02-18T19:21:57.322Z,99.90
2019-02-18T19:24:28.534Z,99.90
2019-02-18T19:26:59.263Z,99.90
2019-02-18T19:29:30.455Z,99.90
2019-02-18T19:32:01.289Z,99.90
2019-02-18T19:34:32.248Z,99.90
2019-02-18T19:37:03.307Z,99.90
2019-02-18T19:39:33.450Z,99.90
2019-02-18T19:42:04.179Z,99.90
2019-02-18T19:44:34.727Z,99.90
2019-02-18T19:47:04.940Z,99.90
2019-02-18T19:49:35.883Z,99.90
2019-02-18T19:52:08.435Z,99.90
2019-02-18T19:54:39.615Z,99.90
2019-02-18T19:57:09.914Z,99.90
2019-02-18T19:59:40.591Z,99.90
2019-02-18T20:02:10.870Z,99.90
2019-02-18T20:04:41.047Z,99.90
2019-02-18T20:07:11.375Z,99.90
2019-02-18T20:09:41.420Z,99.90
2019-02-18T20:12:11.489Z,99.90
2019-02-18T20:14:41.523Z,99.90
2019-02-18T20:17:11.447Z,99.90
2019-02-18T20:19:41.450Z,99.90
2019-02-18T20:22:11.379Z,99.90
2019-02-18T20:24:41.416Z,99.90
2019-02-18T20:27:11.404Z,99.90
2019-02-18T20:29:41.458Z,99.90
2019-02-18T20:32:11.654Z,99.90
2019-02-18T20:34:42.010Z,99.90
2019-02-18T20:37:12.008Z,99.90
2019-02-18T20:39:42.122Z,99.90
2019-02-18T20:42:12.104Z,99.90
2019-02-18T20:44:42.094Z,99.90
2019-02-18T20:47:12.095Z,99.90
2019-02-18T20:49:42.191Z,99.90
2019-02-18T20:52:12.393Z,99.90
2019-02-18T20:54:42.460Z,99.90
2019-02-18T20:57:12.500Z,99.90
2019-02-18T20:59:42.455Z,99.90
2019-02-18T21:02:12.839Z,99.90
2019-02-18T21:04:42.966Z,99.90
2019-02-18T21:07:12.897Z,99.90
2019-02-18T21:09:42.868Z,99.90
2019-02-18T21:12:19.908Z,99.90
2019-02-18T21:14:44.612Z,99.90
2019-02-18T21:17:14.467Z,99.90
2019-02-18T21:19:44.506Z,99.90
2019-02-18T21:22:14.355Z,99.90
2019-02-18T21:24:44.354Z,99.90
2019-02-18T21:27:14.294Z,99.90
2019-02-18T21:29:44.476Z,99.90
2019-02-18T21:32:14.549Z,99.90
2019-02-18T21:34:44.741Z,99.90
2019-02-18T21:37:14.848Z,99.90
2019-02-18T21:39:44.852Z,99.90
2019-02-18T21:42:14.863Z,99.90
2019-02-18T21:44:45.027Z,99.90
2019-02-18T21:47:15.053Z,99.90
2019-02-18T21:49:45.137Z,99.90
2019-02-18T21:52:15.015Z,99.90
2019-02-18T21:54:45.005Z,99.90
2019-02-18T21:57:15.224Z,99.90
2019-02-18T21:59:45.153Z,99.90
2019-02-18T22:02:15.104Z,99.90
2019-02-18T22:04:45.061Z,99.90
2019-02-18T22:07:15.008Z,99.90
2019-02-18T22:09:44.929Z,99.90
2019-02-18T22:12:15.257Z,99.90
2019-02-18T22:14:45.260Z,99.90
2019-02-18T22:17:15.528Z,99.90
2019-02-18T22:19:45.388Z,99.90
2019-02-18T22:22:15.256Z,99.90
2019-02-18T22:24:45.336Z,99.90
2019-02-18T22:27:15.462Z,99.90
2019-02-18T22:29:45.460Z,99.90
2019-02-18T22:32:15.432Z,99.90
2019-02-18T22:34:45.516Z,99.90
2019-02-18T22:37:15.443Z,99.90
2019-02-18T22:39:45.798Z,99.90
2019-02-18T22:42:16.443Z,99.90
2019-02-18T22:44:46.482Z,99.90
2019-02-18T22:47:16.437Z,99.90
2019-02-18T22:49:46.356Z,99.90
2019-02-18T22:52:16.547Z,99.90
2019-02-18T22:54:46.572Z,99.90
2019-02-18T22:57:16.524Z,99.90
2019-02-18T22:59:46.532Z,99.90
2019-02-18T23:02:16.768Z,99.90
2019-02-18T23:04:46.716Z,99.90
2019-02-18T23:07:16.739Z,99.90
2019-02-18T23:09:46.745Z,99.90
2019-02-18T23:12:16.696Z,99.90
2019-02-18T23:14:50.403Z,99.90
2019-02-18T23:17:18.572Z,99.90
2019-02-18T23:19:48.543Z,99.90
2019-02-18T23:22:18.861Z,99.90
2019-02-18T23:24:49.092Z,99.90
2019-02-18T23:27:19.111Z,99.90
2019-02-18T23:29:49.041Z,99.90
2019-02-18T23:32:38.195Z,99.90
2019-02-18T23:35:19.604Z,99.90
2019-02-18T23:38:01.292Z,99.90
2019-02-18T23:40:42.832Z,99.90
2019-02-18T23:43:24.349Z,99.90
2019-02-18T23:46:05.872Z,99.90
2019-02-18T23:48:47.215Z,99.90
2019-02-18T23:51:28.837Z,99.90
2019-02-18T23:54:10.247Z,99.90
2019-02-18T23:56:52.644Z,99.90
2019-02-18T23:59:34.447Z,99.90
